createdAt,value
2022-10-18T00:00:23.117Z,15.36
2022-10-18T00:05:46.269Z,15.35
2022-10-18T00:11:10.747Z,15.36
2022-10-18T00:16:33.854Z,15.34
2022-10-18T00:21:56.938Z,15.26
2022-10-18T00:27:21.434Z,15.24
2022-10-18T00:32:44.482Z,15.21
2022-10-18T00:38:07.583Z,15.14
2022-10-18T00:43:32.105Z,15.12
2022-10-18T00:48:56.994Z,15.12
2022-10-18T00:54:20.541Z,15.09
2022-10-18T00:59:45.466Z,15.01
2022-10-18T01:05:11.159Z,14.97
2022-10-18T01:10:41.275Z,14.94
2022-10-18T01:16:12.642Z,14.88
2022-10-18T01:21:41.543Z,14.84
2022-10-18T01:27:22.555Z,14.87
2022-10-18T01:32:49.629Z,14.84
2022-10-18T01:38:17.106Z,14.77
2022-10-18T01:43:41.637Z,14.75
2022-10-18T01:49:06.611Z,14.76
2022-10-18T01:54:33.566Z,14.69
2022-10-18T02:00:00.906Z,14.67
2022-10-18T02:05:29.988Z,14.66
2022-10-18T02:10:58.056Z,14.61
2022-10-18T02:16:24.692Z,14.59
2022-10-18T02:21:49.554Z,14.55
2022-10-18T02:27:12.788Z,14.47
2022-10-18T02:32:40.005Z,14.44
2022-10-18T02:38:05.714Z,14.39
2022-10-18T02:43:28.755Z,14.33
2022-10-18T02:48:51.912Z,14.19
2022-10-18T02:54:16.336Z,14.05
2022-10-18T02:59:39.413Z,13.92
2022-10-18T03:05:02.458Z,13.88
2022-10-18T03:10:26.994Z,13.80
2022-10-18T03:15:50.165Z,13.73
2022-10-18T03:21:13.459Z,13.66
2022-10-18T03:26:37.999Z,13.66
2022-10-18T03:32:01.126Z,13.65
2022-10-18T03:37:24.199Z,13.61
2022-10-18T03:42:48.818Z,13.60
2022-10-18T03:48:12.000Z,13.58
2022-10-18T03:53:35.152Z,13.58
2022-10-18T03:58:59.564Z,13.52
2022-10-18T04:04:22.850Z,13.46
2022-10-18T04:09:45.969Z,13.38
2022-10-18T04:15:11.740Z,13.35
2022-10-18T04:20:34.840Z,13.35
2022-10-18T04:25:57.899Z,13.35
2022-10-18T04:31:22.349Z,13.29
2022-10-18T04:36:45.394Z,13.20
2022-10-18T04:42:08.579Z,13.11
2022-10-18T04:47:33.624Z,13.04
2022-10-18T04:52:57.230Z,12.97
2022-10-18T04:58:20.554Z,12.84
2022-10-18T05:03:45.049Z,12.83
2022-10-18T05:09:08.246Z,12.77
2022-10-18T05:14:31.363Z,12.72
2022-10-18T05:19:55.824Z,12.67
2022-10-18T05:25:19.037Z,12.60
2022-10-18T05:30:42.885Z,12.58
2022-10-18T05:36:08.199Z,12.59
2022-10-18T05:41:31.276Z,12.50
2022-10-18T05:46:55.251Z,12.39
2022-10-18T05:52:20.112Z,12.25
2022-10-18T05:57:43.277Z,12.17
2022-10-18T06:03:06.318Z,12.09
2022-10-18T06:08:30.888Z,11.95
2022-10-18T06:13:53.953Z,11.88
2022-10-18T06:19:17.156Z,11.82
2022-10-18T06:24:41.652Z,11.81
2022-10-18T06:30:05.144Z,11.68
2022-10-18T06:35:28.206Z,11.59
2022-10-18T06:40:52.652Z,11.55
2022-10-18T06:46:15.781Z,11.59
2022-10-18T06:51:39.209Z,11.72
2022-10-18T06:57:04.006Z,11.88
2022-10-18T07:02:27.106Z,11.88
2022-10-18T07:07:54.181Z,11.87
2022-10-18T07:13:32.039Z,11.94
2022-10-18T07:18:56.175Z,12.05
2022-10-18T07:24:19.381Z,12.14
2022-10-18T07:29:43.914Z,12.22
2022-10-18T07:35:07.844Z,12.31
2022-10-18T07:40:30.960Z,12.39
2022-10-18T07:45:56.495Z,12.49
2022-10-18T07:51:20.125Z,12.50
2022-10-18T07:56:43.782Z,12.63
2022-10-18T08:02:08.340Z,12.69
2022-10-18T08:07:33.240Z,12.78
2022-10-18T08:12:56.448Z,12.87
2022-10-18T08:18:21.095Z,13.02
2022-10-18T08:23:44.511Z,13.06
2022-10-18T08:29:21.860Z,13.27
2022-10-18T08:34:48.478Z,13.41
2022-10-18T08:40:14.185Z,13.57
2022-10-18T08:45:42.927Z,13.72
2022-10-18T08:51:14.414Z,13.92
2022-10-18T08:56:37.866Z,14.11
2022-10-18T09:02:06.812Z,14.28
2022-10-18T09:07:47.618Z,14.29
2022-10-18T09:13:43.619Z,14.48
2022-10-18T09:19:12.576Z,14.60
2022-10-18T09:24:40.748Z,14.83
2022-10-18T09:30:09.180Z,14.92
2022-10-18T09:35:38.972Z,15.01
2022-10-18T09:41:10.054Z,15.10
2022-10-18T09:46:35.351Z,15.14
2022-10-18T09:52:00.258Z,15.31
2022-10-18T09:57:28.350Z,15.56
2022-10-18T10:02:51.605Z,15.88
2022-10-18T10:08:14.854Z,15.97
2022-10-18T10:13:39.328Z,15.94
2022-10-18T10:19:02.685Z,16.02
2022-10-18T10:24:31.144Z,16.12
2022-10-18T10:30:01.415Z,16.18
2022-10-18T10:41:23.603Z,16.01
2022-10-18T10:46:49.811Z,16.14
2022-10-18T10:52:27.719Z,16.23
2022-10-18T10:57:53.713Z,16.46
2022-10-18T11:03:34.996Z,16.55
2022-10-18T11:08:58.726Z,16.48
2022-10-18T11:14:26.865Z,16.61
2022-10-18T11:20:05.339Z,16.66
2022-10-18T11:25:39.588Z,16.56
2022-10-18T11:31:13.946Z,16.69
2022-10-18T11:36:50.391Z,16.83
2022-10-18T11:42:30.710Z,16.84
2022-10-18T11:48:01.051Z,16.99
2022-10-18T11:53:31.237Z,17.12
2022-10-18T11:59:05.055Z,17.20
2022-10-18T12:04:33.306Z,17.12
2022-10-18T12:09:58.305Z,17.01
2022-10-18T12:15:23.488Z,16.81
2022-10-18T12:20:48.584Z,16.55
2022-10-18T12:26:14.529Z,16.66
2022-10-18T12:31:41.296Z,16.69
2022-10-18T12:37:42.706Z,16.76
2022-10-18T12:43:12.376Z,16.97
2022-10-18T12:48:39.161Z,17.09
2022-10-18T12:54:12.979Z,17.09
2022-10-18T12:59:48.151Z,17.01
2022-10-18T13:05:56.323Z,17.08
2022-10-18T13:11:36.343Z,17.03
2022-10-18T13:17:08.100Z,17.05
2022-10-18T13:22:50.249Z,16.97
2022-10-18T13:28:22.008Z,17.04
2022-10-18T13:33:46.609Z,16.84
2022-10-18T13:39:19.877Z,16.84
2022-10-18T13:44:44.835Z,16.77
2022-10-18T13:50:19.349Z,17.01
2022-10-18T13:55:56.852Z,17.39
2022-10-18T14:01:26.471Z,17.63
2022-10-18T14:06:51.472Z,17.79
2022-10-18T14:12:22.463Z,17.66
2022-10-18T14:17:49.045Z,17.63
2022-10-18T14:23:16.925Z,17.37
2022-10-18T14:28:58.406Z,17.19
2022-10-18T14:34:22.934Z,17.08
2022-10-18T14:39:47.904Z,17.15
2022-10-18T14:45:19.412Z,17.17
2022-10-18T14:50:43.171Z,17.20
2022-10-18T14:56:08.531Z,17.07
2022-10-18T15:01:33.069Z,17.00
2022-10-18T15:06:56.618Z,17.08
2022-10-18T15:12:21.295Z,17.17
2022-10-18T15:17:44.677Z,17.22
2022-10-18T15:23:26.066Z,16.96
2022-10-18T15:28:53.809Z,16.93
2022-10-18T15:34:20.114Z,16.76
2022-10-18T15:39:43.241Z,16.51
2022-10-18T15:45:31.455Z,16.36
2022-10-18T15:50:55.654Z,16.20
2022-10-18T15:56:30.017Z,16.09
2022-10-18T16:01:55.448Z,15.99
2022-10-18T16:07:18.781Z,15.88
2022-10-18T16:12:42.200Z,15.75
2022-10-18T16:18:06.788Z,15.65
2022-10-18T16:23:29.857Z,15.53
2022-10-18T16:28:53.193Z,15.39
2022-10-18T16:34:17.999Z,15.28
2022-10-18T16:39:41.101Z,15.20
2022-10-18T16:45:04.405Z,15.09
2022-10-18T16:50:30.877Z,14.93
2022-10-18T16:55:59.674Z,14.83
2022-10-18T17:01:24.272Z,14.76
2022-10-18T17:06:49.225Z,14.68
2022-10-18T17:12:12.578Z,14.70
2022-10-18T17:17:36.267Z,14.64
2022-10-18T17:23:00.730Z,14.60
2022-10-18T17:28:23.947Z,14.45
2022-10-18T17:33:47.036Z,14.45
2022-10-18T17:39:13.850Z,14.27
2022-10-18T17:44:37.133Z,14.13
2022-10-18T17:50:00.238Z,14.05
2022-10-18T17:55:24.707Z,14.00
2022-10-18T18:00:48.015Z,13.95
2022-10-18T18:06:15.853Z,13.91
2022-10-18T18:11:42.029Z,13.80
2022-10-18T18:17:05.241Z,13.72
2022-10-18T18:22:28.263Z,13.60
2022-10-18T18:27:52.748Z,13.55
2022-10-18T18:33:15.831Z,13.44
2022-10-18T18:38:40.079Z,13.37
2022-10-18T18:44:06.123Z,13.27
2022-10-18T18:49:29.454Z,13.04
2022-10-18T18:54:52.520Z,13.11
2022-10-18T19:00:17.467Z,12.98
2022-10-18T19:05:40.593Z,12.87
2022-10-18T19:11:08.044Z,12.90
2022-10-18T19:16:35.060Z,12.86
2022-10-18T19:21:59.262Z,12.77
2022-10-18T19:27:22.439Z,12.72
2022-10-18T19:32:46.915Z,12.67
2022-10-18T19:38:09.999Z,12.60
2022-10-18T19:43:56.377Z,12.52
2022-10-18T19:49:20.814Z,12.42
2022-10-18T19:54:44.973Z,12.33
2022-10-18T20:00:10.943Z,12.25
2022-10-18T20:05:38.766Z,12.22
2022-10-18T20:11:02.477Z,12.15
2022-10-18T20:16:28.688Z,12.10
2022-10-18T20:21:55.773Z,12.06
2022-10-18T20:27:18.863Z,12.02
2022-10-18T20:32:42.726Z,11.99
2022-10-18T20:38:07.178Z,11.90
2022-10-18T20:43:30.328Z,11.88
2022-10-18T20:48:53.932Z,11.81
2022-10-18T20:54:18.378Z,11.81
2022-10-18T20:59:41.418Z,11.77
2022-10-18T21:05:04.907Z,11.73
2022-10-18T21:10:29.416Z,11.68
2022-10-18T21:15:55.879Z,11.58
2022-10-18T21:21:20.857Z,11.55
2022-10-18T21:26:45.427Z,11.51
2022-10-18T21:32:08.679Z,11.42
2022-10-18T21:37:31.782Z,11.37
2022-10-18T21:42:56.260Z,11.30
2022-10-18T21:48:19.370Z,11.24
2022-10-18T21:53:43.612Z,11.19
2022-10-18T21:59:08.483Z,11.16
2022-10-18T22:04:35.690Z,11.04
2022-10-18T22:09:58.783Z,11.04
2022-10-18T22:15:23.366Z,11.03
2022-10-18T22:20:54.825Z,10.91
2022-10-18T22:26:20.907Z,11.00
2022-10-18T22:31:46.975Z,10.95
2022-10-18T22:37:10.040Z,10.93
2022-10-18T22:48:02.672Z,10.84
2022-10-18T22:53:26.029Z,10.73
2022-10-18T22:58:49.271Z,10.70
2022-10-18T23:04:13.772Z,10.70
2022-10-18T23:09:36.867Z,10.69
2022-10-18T23:14:59.932Z,10.62
2022-10-18T23:20:24.680Z,10.64
2022-10-18T23:25:51.077Z,10.64
2022-10-18T23:31:17.967Z,10.71
2022-10-18T23:42:10.662Z,11.02
2022-10-18T23:47:33.878Z,11.11
2022-10-18T23:52:58.771Z,11.18
2022-10-18T23:58:22.257Z,11.22
